This is the latest recevied weather packets stored in our database for station/object KD9DOE. If no packets are shown the sender has not sent any weather packets the latest 10 day(s).
| Time | Temp. | Humidity | Pressure | Rain* | Wind** | Luminosity | Snow |
|---|---|---|---|---|---|---|---|
| 1777680675 | 7.78° C | 47% | 1017.5 hPa | 0 mm | - | 24 W/m² | - |
| 1777680373 | 8.33° C | 49% | 1017.7 hPa | 0 mm | - | 26 W/m² | - |
| 1777680070 | 8.33° C | 45% | 1017.5 hPa | 0 mm | - | 28 W/m² | - |
| 1777679765 | 8.33° C | 48% | 1017.4 hPa | 0 mm | - | 30 W/m² | - |
| 1777679462 | 8.33° C | 46% | 1017.3 hPa | 0 mm | - | 28 W/m² | - |
| 1777679157 | 8.33° C | 45% | 1017.3 hPa | 0 mm | - | 31 W/m² | - |
| 1777678855 | 8.33° C | 44% | 1017.3 hPa | 0 mm | - | 34 W/m² | - |
| 1777678553 | 8.89° C | 46% | 1017.4 hPa | 0 mm | - | 42 W/m² | - |
| 1777678250 | 8.89° C | 46% | 1017.4 hPa | 0 mm | - | 57 W/m² | - |
| 1777677946 | 8.89° C | 43% | 1017.4 hPa | 0 mm | - | 40 W/m² | - |
| 1777677643 | 9.44° C | 42% | 1017.1 hPa | 0 mm | - | 51 W/m² | - |
| 1777677341 | 9.44° C | 41% | 1017.4 hPa | 0 mm | - | 57 W/m² | - |
| 1777677039 | 9.44° C | 42% | 1017.4 hPa | 0 mm | - | 62 W/m² | - |
| 1777676738 | 9.44° C | 42% | 1017.3 hPa | 0 mm | - | 177 W/m² | - |
| 1777676435 | 9.44° C | 43% | 1017.4 hPa | 0 mm | - | 68 W/m² | - |
| 1777676132 | 8.89° C | 44% | 1017.4 hPa | 0 mm | - | 54 W/m² | - |
| 1777675828 | 8.89° C | 43% | 1017.4 hPa | 0 mm | - | 204 W/m² | - |
| 1777675526 | 8.89° C | 44% | 1017.5 hPa | 0 mm | - | 57 W/m² | - |
| 1777675223 | 9.44° C | 43% | 1017.4 hPa | 0 mm | - | 72 W/m² | - |
| 1777674920 | 10° C | 41% | 1017.1 hPa | 0 mm | - | 282 W/m² | - |
| 1777674616 | 10° C | 38% | 1017.4 hPa | 0 mm | - | 85 W/m² | - |
| 1777674313 | 10° C | 42% | 1017 hPa | 0 mm | - | 112 W/m² | - |
| 1777674010 | 10° C | 39% | 1017.3 hPa | 0 mm | - | 123 W/m² | - |
| 1777673705 | 10° C | 38% | 1017.3 hPa | 0 mm | - | 129 W/m² | - |
| 1777673404 | 10° C | 36% | 1017.1 hPa | 0 mm | - | 196 W/m² | - |
* Rain latest hour (hover to see other rain measurements)
** Current wind speed in m/s (hover to see current wind gust speed)